createdAt,value
2019-04-22T00:01:23.163Z,11.73
2019-04-22T00:03:56.520Z,12.77
2019-04-22T00:06:48.420Z,13.57
2019-04-22T00:09:17.400Z,12.70
2019-04-22T00:11:48.574Z,13.30
2019-04-22T00:14:13.387Z,12.97
2019-04-22T00:16:53.615Z,12.67
2019-04-22T00:21:50.193Z,14.20
2019-04-22T00:24:17.043Z,11.57
2019-04-22T00:26:50.288Z,14.67
2019-04-22T00:29:39.514Z,14.30
2019-04-22T00:31:54.349Z,12.33
2019-04-22T00:34:24.172Z,11.27
2019-04-22T00:36:54.589Z,11.20
2019-04-22T00:39:33.719Z,11.53
2019-04-22T00:41:57.191Z,11.23
2019-04-22T00:44:25.847Z,10.40
2019-04-22T00:47:01.143Z,9.90
2019-04-22T00:52:05.183Z,11.17
2019-04-22T00:54:31.151Z,10.67
2019-04-22T00:56:54.255Z,11.03
2019-04-22T00:59:34.756Z,10.47
2019-04-22T01:02:00.718Z,11.50
2019-04-22T01:04:34.635Z,15.33
2019-04-22T01:07:00.694Z,14.07
2019-04-22T01:09:30.113Z,10.87
2019-04-22T01:12:00.128Z,10.47
2019-04-22T01:14:29.734Z,10.37
2019-04-22T01:16:59.669Z,15.00
2019-04-22T01:19:29.604Z,12.40
2019-04-22T01:22:03.106Z,9.80
2019-04-22T01:24:28.076Z,10.07
2019-04-22T01:26:53.488Z,11.60
2019-04-22T01:29:20.171Z,13.77
2019-04-22T01:31:42.016Z,11.73
2019-04-22T01:34:23.226Z,10.20
2019-04-22T01:36:59.883Z,9.43
2019-04-22T01:39:37.424Z,10.83
2019-04-22T01:42:06.183Z,11.10
2019-04-22T01:47:18.318Z,10.37
2019-04-22T01:49:33.919Z,11.10
2019-04-22T01:52:07.696Z,9.20
2019-04-22T01:54:43.169Z,10.77
2019-04-22T01:57:04.882Z,10.13
2019-04-22T01:59:31.705Z,8.97
2019-04-22T02:02:10.291Z,12.47
2019-04-22T02:07:14.570Z,14.23
2019-04-22T02:12:12.872Z,10.33
2019-04-22T02:14:44.379Z,11.67
2019-04-22T02:17:21.035Z,14.60
2019-04-22T02:19:45.613Z,11.17
2019-04-22T02:22:11.526Z,10.67
2019-04-22T02:24:46.850Z,11.77
2019-04-22T02:27:17.383Z,11.67
2019-04-22T02:29:44.200Z,11.80
2019-04-22T02:32:27.604Z,11.33
2019-04-22T02:39:48.659Z,11.60
2019-04-22T02:42:14.091Z,12.20
2019-04-22T02:44:46.640Z,10.60
2019-04-22T02:49:50.881Z,9.90
2019-04-22T02:57:35.455Z,10.80
2019-04-22T03:02:45.979Z,10.13
2019-04-22T03:04:47.276Z,9.00
2019-04-22T03:07:18.778Z,11.23
2019-04-22T03:09:47.810Z,11.50
2019-04-22T03:12:23.575Z,10.10
2019-04-22T03:15:06.274Z,11.00
2019-04-22T03:17:25.162Z,11.10
2019-04-22T03:25:11.484Z,10.87
2019-04-22T03:27:28.440Z,9.27
2019-04-22T03:37:49.115Z,8.97
2019-04-22T03:42:52.205Z,9.87
2019-04-22T03:47:47.023Z,10.07
2019-04-22T03:50:25.736Z,10.00
2019-04-22T03:52:39.128Z,10.23
2019-04-22T04:00:21.717Z,12.20
2019-04-22T04:05:26.715Z,10.50
2019-04-22T04:10:37.104Z,10.83
2019-04-22T04:12:53.728Z,10.50
2019-04-22T04:15:21.062Z,10.93
2019-04-22T04:17:51.450Z,10.50
2019-04-22T04:20:21.409Z,11.97
2019-04-22T04:23:05.470Z,11.97
2019-04-22T04:25:29.529Z,9.57
2019-04-22T04:30:18.890Z,14.70
2019-04-22T04:37:52.129Z,9.10
2019-04-22T04:42:56.612Z,11.17
2019-04-22T04:53:02.331Z,12.03
2019-04-22T04:55:24.056Z,10.47
2019-04-22T05:00:45.918Z,12.17
2019-04-22T05:05:31.568Z,9.77
2019-04-22T05:07:48.589Z,10.77
2019-04-22T05:10:35.452Z,9.07
2019-04-22T05:13:01.127Z,10.03
2019-04-22T05:15:34.999Z,10.30
2019-04-22T05:17:57.734Z,12.80
2019-04-22T05:20:36.147Z,10.50
2019-04-22T05:22:44.265Z,11.27
2019-04-22T05:25:17.862Z,10.70
2019-04-22T05:27:45.297Z,9.60
2019-04-22T05:35:31.168Z,10.30
2019-04-22T05:37:52.534Z,9.90
2019-04-22T05:42:49.419Z,9.90
2019-04-22T05:45:23.022Z,10.73
2019-04-22T05:47:51.938Z,9.43
2019-04-22T05:50:18.993Z,10.03
2019-04-22T05:52:57.286Z,9.87
2019-04-22T05:55:32.398Z,10.07
2019-04-22T05:57:59.451Z,10.03
2019-04-22T06:00:30.937Z,9.63
2019-04-22T06:02:58.053Z,9.30
2019-04-22T06:05:33.111Z,9.20
2019-04-22T06:08:02.331Z,11.30
2019-04-22T06:10:39.311Z,13.60
2019-04-22T06:12:56.300Z,10.70
2019-04-22T06:15:47.829Z,9.80
2019-04-22T06:18:09.277Z,10.03
2019-04-22T06:20:36.957Z,10.43
2019-04-22T06:25:53.423Z,9.40
2019-04-22T06:28:15.606Z,9.93
2019-04-22T06:30:36.354Z,10.57
2019-04-22T06:33:09.443Z,10.10
2019-04-22T06:40:41.994Z,9.67
2019-04-22T06:43:10.307Z,8.97
2019-04-22T06:45:57.701Z,9.40
2019-04-22T06:48:12.707Z,8.40
2019-04-22T06:50:41.636Z,9.83
2019-04-22T06:53:08.997Z,8.57
2019-04-22T06:55:44.373Z,8.57
2019-04-22T06:58:12.895Z,8.90
2019-04-22T07:00:42.904Z,9.17
2019-04-22T07:05:57.107Z,8.37
2019-04-22T07:13:21.093Z,8.17
2019-04-22T07:18:20.507Z,8.47
2019-04-22T07:23:24.815Z,8.47
2019-04-22T07:25:45.275Z,8.27
2019-04-22T07:28:15.711Z,7.93
2019-04-22T07:30:44.797Z,8.55
2019-04-22T07:33:21.083Z,8.80
2019-04-22T07:36:03.094Z,9.83
2019-04-22T07:38:25.548Z,8.13
2019-04-22T07:45:51.862Z,7.60
2019-04-22T07:48:26.451Z,8.30
2019-04-22T07:53:19.811Z,7.47
2019-04-22T07:55:51.902Z,7.57
2019-04-22T08:01:09.101Z,7.97
2019-04-22T08:03:47.134Z,6.77
2019-04-22T08:05:58.761Z,7.57
2019-04-22T08:08:26.035Z,7.17
2019-04-22T08:10:57.959Z,8.67
2019-04-22T08:13:25.334Z,10.13
2019-04-22T08:15:56.793Z,6.47
2019-04-22T08:20:54.029Z,5.83
2019-04-22T08:23:23.861Z,8.43
2019-04-22T08:25:57.147Z,5.73
2019-04-22T08:30:53.628Z,5.83
2019-04-22T08:33:29.479Z,6.73
2019-04-22T08:36:07.120Z,7.47
2019-04-22T08:38:37.267Z,7.50
2019-04-22T08:41:20.383Z,5.80
2019-04-22T08:43:48.047Z,10.17
2019-04-22T08:46:05.751Z,6.67
2019-04-22T08:48:45.405Z,8.03
2019-04-22T08:51:13.616Z,7.80
2019-04-22T08:53:48.146Z,6.40
2019-04-22T08:56:24.790Z,5.87
2019-04-22T08:58:51.912Z,6.07
2019-04-22T09:01:18.872Z,5.53
2019-04-22T09:03:49.264Z,5.40
2019-04-22T09:06:20.138Z,5.30
2019-04-22T09:08:50.419Z,6.17
2019-04-22T09:11:21.625Z,5.37
2019-04-22T09:13:50.091Z,5.10
2019-04-22T09:16:23.375Z,6.23
2019-04-22T09:18:52.717Z,5.80
2019-04-22T09:21:18.799Z,6.63
2019-04-22T09:23:56.868Z,4.50
2019-04-22T09:26:18.519Z,4.83
2019-04-22T09:28:50.943Z,4.50
2019-04-22T09:31:28.698Z,16.90
2019-04-22T09:33:46.300Z,6.57
2019-04-22T09:36:25.266Z,4.70
2019-04-22T09:41:18.848Z,4.47
2019-04-22T09:43:53.686Z,4.77
2019-04-22T09:46:25.012Z,5.63
2019-04-22T09:48:50.155Z,5.50
2019-04-22T09:51:18.617Z,5.93
2019-04-22T09:53:55.780Z,4.70
2019-04-22T09:56:27.927Z,4.37
2019-04-22T09:58:49.457Z,5.40
2019-04-22T10:06:33.280Z,4.07
2019-04-22T10:09:10.691Z,4.10
2019-04-22T10:13:53.630Z,4.27
2019-04-22T10:16:27.036Z,4.90
2019-04-22T10:18:52.897Z,6.23
2019-04-22T10:21:29.839Z,6.93
2019-04-22T10:23:54.809Z,4.83
2019-04-22T10:26:29.674Z,4.00
2019-04-22T10:31:25.704Z,3.50
2019-04-22T10:33:46.534Z,4.40
2019-04-22T10:35:59.359Z,3.40
2019-04-22T10:38:28.450Z,4.10
2019-04-22T10:40:58.569Z,3.80
2019-04-22T10:43:27.608Z,6.27
2019-04-22T10:45:57.659Z,3.98
2019-04-22T10:48:26.523Z,3.37
2019-04-22T10:50:55.099Z,4.42
2019-04-22T10:53:23.854Z,2.60
2019-04-22T10:55:52.501Z,2.70
2019-04-22T10:58:22.794Z,3.22
2019-04-22T11:00:52.343Z,3.17
2019-04-22T11:03:22.498Z,2.40
2019-04-22T11:05:53.892Z,2.12
2019-04-22T11:08:31.593Z,2.37
2019-04-22T11:11:07.107Z,2.20
2019-04-22T11:13:22.305Z,3.65
2019-04-22T11:15:51.050Z,2.12
2019-04-22T11:18:19.979Z,2.37
2019-04-22T11:20:49.558Z,3.22
2019-04-22T11:23:18.692Z,2.08
2019-04-22T11:25:47.991Z,2.92
2019-04-22T11:28:17.961Z,3.42
2019-04-22T11:30:48.094Z,2.47
2019-04-22T11:33:16.770Z,2.35
2019-04-22T11:35:45.903Z,2.75
2019-04-22T11:38:15.132Z,3.45
2019-04-22T11:40:49.773Z,2.60
2019-04-22T11:43:14.602Z,3.25
2019-04-22T11:45:43.189Z,2.47
2019-04-22T11:48:13.172Z,2.40
2019-04-22T11:50:42.150Z,2.30
2019-04-22T11:53:11.091Z,2.20
2019-04-22T11:55:40.624Z,2.60
2019-04-22T11:58:10.626Z,3.45
2019-04-22T12:00:41.048Z,6.92
2019-04-22T12:03:10.050Z,12.63
2019-04-22T12:05:39.844Z,4.42
2019-04-22T12:08:09.270Z,2.72
2019-04-22T12:10:48.312Z,2.62
2019-04-22T12:13:08.360Z,2.40
2019-04-22T12:15:37.375Z,2.58
2019-04-22T12:18:07.041Z,2.30
2019-04-22T12:20:36.956Z,3.98
2019-04-22T12:23:07.369Z,2.15
2019-04-22T12:25:47.603Z,2.10
2019-04-22T12:28:07.149Z,4.17
2019-04-22T12:30:37.295Z,2.05
2019-04-22T12:33:10.519Z,3.17
2019-04-22T12:35:36.962Z,2.12
2019-04-22T12:38:08.533Z,3.27
2019-04-22T12:40:43.382Z,3.00
2019-04-22T12:43:08.246Z,3.40
2019-04-22T12:45:36.513Z,5.30
2019-04-22T12:48:06.352Z,2.50
2019-04-22T12:50:40.246Z,2.35
2019-04-22T12:53:10.584Z,2.67
2019-04-22T12:55:35.731Z,2.33
2019-04-22T12:58:05.460Z,3.85
2019-04-22T13:00:36.319Z,3.30
2019-04-22T13:03:05.437Z,2.12
2019-04-22T13:05:35.029Z,3.37
2019-04-22T13:08:05.458Z,2.27
2019-04-22T13:10:45.785Z,3.58
2019-04-22T13:13:05.037Z,2.30
2019-04-22T13:15:35.061Z,4.35
2019-04-22T13:18:13.756Z,2.40
2019-04-22T13:20:34.505Z,2.22
2019-04-22T13:23:04.035Z,4.12
2019-04-22T13:25:32.699Z,5.12
2019-04-22T13:28:02.899Z,2.50
2019-04-22T13:30:32.591Z,5.70
2019-04-22T13:33:02.824Z,4.25
2019-04-22T13:35:31.851Z,2.90
2019-04-22T13:38:01.218Z,2.47
2019-04-22T13:40:30.799Z,2.87
2019-04-22T13:43:00.755Z,2.35
2019-04-22T13:45:29.797Z,2.83
2019-04-22T13:48:16.839Z,2.95
2019-04-22T13:50:58.258Z,4.15
2019-04-22T13:58:14.609Z,2.87
2019-04-22T14:00:32.381Z,3.97
2019-04-22T14:03:08.900Z,5.07
2019-04-22T14:05:40.487Z,2.40
2019-04-22T14:08:10.735Z,3.27
2019-04-22T14:10:40.593Z,3.93
2019-04-22T14:13:09.959Z,2.20
2019-04-22T14:15:40.132Z,2.50
2019-04-22T14:18:10.654Z,2.90
2019-04-22T14:20:40.712Z,3.13
2019-04-22T14:23:10.277Z,5.00
2019-04-22T14:25:41.044Z,2.73
2019-04-22T14:30:40.022Z,2.13
2019-04-22T14:33:09.781Z,3.33
2019-04-22T14:35:39.775Z,3.07
2019-04-22T14:38:08.484Z,3.13
2019-04-22T14:40:38.650Z,2.70
2019-04-22T14:43:31.795Z,2.37
2019-04-22T14:44:03.614Z,2.23
2019-04-22T14:48:35.682Z,2.73
2019-04-22T14:50:56.054Z,2.80
2019-04-22T14:53:32.355Z,3.90
2019-04-22T14:55:40.377Z,3.90
2019-04-22T14:58:09.290Z,4.33
2019-04-22T15:00:38.308Z,2.30
2019-04-22T15:03:08.196Z,2.27
2019-04-22T15:05:37.637Z,3.73
2019-04-22T15:08:07.005Z,4.23
2019-04-22T15:10:36.156Z,3.60
2019-04-22T15:13:05.520Z,3.57
2019-04-22T15:15:44.203Z,9.33
2019-04-22T15:18:28.237Z,4.17
2019-04-22T15:20:58.628Z,3.30
2019-04-22T15:23:28.573Z,4.13
2019-04-22T15:25:58.846Z,5.23
2019-04-22T15:28:27.602Z,2.80
2019-04-22T15:30:57.365Z,4.50
2019-04-22T15:33:27.608Z,3.13
2019-04-22T15:35:56.297Z,4.27
2019-04-22T15:38:26.126Z,4.07
2019-04-22T15:40:54.839Z,5.00
2019-04-22T15:43:27.386Z,3.53
2019-04-22T15:45:54.856Z,4.40
2019-04-22T15:48:25.060Z,3.30
2019-04-22T15:50:54.969Z,4.00
2019-04-22T15:53:23.569Z,3.40
2019-04-22T15:55:52.471Z,2.90
2019-04-22T15:58:21.795Z,4.07
2019-04-22T16:01:00.069Z,4.27
2019-04-22T16:03:20.787Z,4.83
2019-04-22T16:05:50.292Z,4.30
2019-04-22T16:08:19.157Z,4.37
2019-04-22T16:10:48.260Z,5.37
2019-04-22T16:13:22.331Z,3.60
2019-04-22T16:15:47.085Z,5.37
2019-04-22T16:18:15.569Z,3.80
2019-04-22T16:20:44.219Z,4.07
2019-04-22T16:23:23.640Z,4.93
2019-04-22T16:26:11.626Z,4.67
2019-04-22T16:28:40.377Z,6.03
2019-04-22T16:31:09.312Z,5.73
2019-04-22T16:33:41.370Z,6.23
2019-04-22T16:36:09.007Z,4.57
2019-04-22T16:38:37.706Z,5.13
2019-04-22T16:41:06.708Z,5.90
2019-04-22T16:43:36.498Z,4.13
2019-04-22T16:46:05.704Z,4.33
2019-04-22T16:48:35.686Z,7.27
2019-04-22T16:51:04.613Z,4.37
2019-04-22T16:53:33.168Z,3.37
2019-04-22T16:56:02.754Z,4.33
2019-04-22T16:58:32.721Z,4.37
2019-04-22T17:01:02.789Z,3.73
2019-04-22T17:03:34.298Z,3.70
2019-04-22T17:06:07.928Z,3.97
2019-04-22T17:08:37.029Z,3.70
2019-04-22T17:11:07.142Z,3.47
2019-04-22T17:13:38.074Z,3.53
2019-04-22T17:16:07.167Z,3.90
2019-04-22T17:18:37.093Z,3.50
2019-04-22T17:21:08.442Z,3.97
2019-04-22T17:23:37.905Z,3.50
2019-04-22T17:26:06.701Z,3.80
2019-04-22T17:28:35.545Z,3.83
2019-04-22T17:31:04.829Z,4.20
2019-04-22T17:33:35.011Z,4.50
2019-04-22T17:36:05.279Z,3.87
2019-04-22T17:38:46.768Z,9.23
2019-04-22T17:41:18.735Z,4.13
2019-04-22T17:43:59.238Z,3.83
2019-04-22T17:46:25.153Z,4.10
2019-04-22T17:49:04.031Z,7.57
2019-04-22T17:51:36.387Z,5.90
2019-04-22T17:54:07.041Z,4.27
2019-04-22T17:56:38.511Z,5.27
2019-04-22T17:59:11.744Z,4.17
2019-04-22T18:01:41.719Z,6.13
2019-04-22T18:03:53.269Z,4.70
2019-04-22T18:06:46.955Z,5.20
2019-04-22T18:09:04.995Z,4.53
2019-04-22T18:11:59.078Z,5.70
2019-04-22T18:14:32.922Z,4.83
2019-04-22T18:16:41.404Z,9.93
2019-04-22T18:19:12.974Z,4.47
2019-04-22T18:21:35.740Z,5.17
2019-04-22T18:24:02.689Z,4.93
2019-04-22T18:26:43.642Z,5.67
2019-04-22T18:29:11.559Z,5.63
2019-04-22T18:31:33.031Z,5.97
2019-04-22T18:34:06.937Z,4.87
2019-04-22T18:36:38.767Z,5.13
2019-04-22T18:39:18.905Z,7.00
2019-04-22T18:41:42.924Z,5.33
2019-04-22T18:44:19.899Z,5.80
2019-04-22T18:46:42.591Z,5.57
2019-04-22T18:49:11.043Z,6.57
2019-04-22T18:51:46.836Z,7.47
2019-04-22T18:54:22.686Z,5.70
2019-04-22T18:56:51.004Z,6.60
2019-04-22T18:59:12.508Z,7.17
2019-04-22T19:01:35.510Z,8.20
2019-04-22T19:04:13.224Z,8.03
2019-04-22T19:06:56.910Z,6.80
2019-04-22T19:09:35.452Z,7.73
2019-04-22T19:12:11.774Z,7.70
2019-04-22T19:14:39.068Z,9.53
2019-04-22T19:17:15.333Z,7.73
2019-04-22T19:19:35.310Z,7.40
2019-04-22T19:21:57.744Z,9.70
2019-04-22T19:24:31.880Z,9.07
2019-04-22T19:27:02.126Z,8.20
2019-04-22T19:29:39.221Z,8.03
2019-04-22T19:32:01.830Z,8.93
2019-04-22T19:34:32.068Z,8.43
2019-04-22T19:37:05.649Z,8.03
2019-04-22T19:39:31.028Z,9.03
2019-04-22T19:42:09.526Z,8.67
2019-04-22T19:44:36.267Z,10.77
2019-04-22T19:47:19.537Z,8.80
2019-04-22T19:49:50.896Z,11.10
2019-04-22T19:52:12.573Z,8.83
2019-04-22T19:54:35.765Z,8.93
2019-04-22T19:56:57.427Z,9.83
2019-04-22T19:59:36.664Z,8.97
2019-04-22T20:02:07.131Z,9.60
2019-04-22T20:04:51.084Z,9.40
2019-04-22T20:07:12.828Z,11.83
2019-04-22T20:09:49.352Z,9.60
2019-04-22T20:12:15.382Z,9.67
2019-04-22T20:14:44.968Z,10.50
2019-04-22T20:17:21.777Z,11.50
2019-04-22T20:19:49.917Z,9.73
2019-04-22T20:22:12.842Z,10.50
2019-04-22T20:24:29.215Z,10.50
2019-04-22T20:27:18.950Z,10.87
2019-04-22T20:29:49.520Z,11.33
2019-04-22T20:32:20.221Z,11.70
2019-04-22T20:34:50.832Z,11.10
2019-04-22T20:37:25.269Z,10.73
2019-04-22T20:39:49.114Z,13.53
2019-04-22T20:42:33.654Z,17.87
2019-04-22T20:44:52.114Z,11.83
2019-04-22T20:47:16.496Z,11.17
2019-04-22T20:49:48.849Z,11.73
2019-04-22T20:52:26.403Z,12.07
2019-04-22T20:54:51.066Z,11.80
2019-04-22T20:57:17.269Z,11.33
2019-04-22T20:59:48.244Z,10.50
2019-04-22T21:02:15.342Z,14.17
2019-04-22T21:04:41.557Z,10.80
2019-04-22T21:07:14.041Z,13.10
2019-04-22T21:09:52.345Z,10.87
2019-04-22T21:12:13.760Z,11.10
2019-04-22T21:14:55.295Z,12.83
2019-04-22T21:17:24.902Z,14.50
2019-04-22T21:20:14.343Z,10.60
2019-04-22T21:22:22.114Z,11.47
2019-04-22T21:24:48.991Z,11.33
2019-04-22T21:27:43.820Z,17.23
2019-04-22T21:29:48.506Z,12.87
2019-04-22T21:32:28.191Z,11.40
2019-04-22T21:35:03.273Z,12.07
2019-04-22T21:37:26.434Z,14.87
2019-04-22T21:39:46.396Z,11.63
2019-04-22T21:42:21.045Z,14.20
2019-04-22T21:44:50.992Z,12.60
2019-04-22T21:47:30.190Z,13.03
2019-04-22T21:50:07.862Z,12.43
2019-04-22T21:52:27.981Z,11.53
2019-04-22T21:55:04.340Z,12.13
2019-04-22T21:57:33.711Z,16.93
2019-04-22T22:00:03.507Z,13.57
2019-04-22T22:02:39.570Z,12.93
2019-04-22T22:05:00.144Z,12.97
2019-04-22T22:07:21.323Z,16.03
2019-04-22T22:10:04.393Z,13.30
2019-04-22T22:12:45.157Z,11.43
2019-04-22T22:15:08.476Z,17.13
2019-04-22T22:17:35.607Z,15.17
2019-04-22T22:20:03.440Z,13.77
2019-04-22T22:25:10.233Z,12.50
2019-04-22T22:27:37.473Z,15.40
2019-04-22T22:30:29.261Z,11.87
2019-04-22T22:32:40.226Z,13.23
2019-04-22T22:35:06.756Z,12.30
2019-04-22T22:37:29.230Z,14.43
2019-04-22T22:39:57.955Z,12.40
2019-04-22T22:42:30.195Z,11.93
2019-04-22T22:45:02.376Z,11.43
2019-04-22T22:47:39.350Z,10.90
2019-04-22T22:50:12.854Z,12.47
2019-04-22T22:55:10.428Z,10.47
2019-04-22T22:57:46.141Z,12.50
2019-04-22T23:00:11.199Z,10.90
2019-04-22T23:02:47.211Z,12.50
2019-04-22T23:05:18.467Z,14.27
2019-04-22T23:07:51.089Z,11.43
2019-04-22T23:10:14.502Z,11.10
2019-04-22T23:12:48.742Z,11.50
2019-04-22T23:15:12.047Z,10.70
2019-04-22T23:17:26.715Z,11.33
2019-04-22T23:19:55.779Z,10.63
2019-04-22T23:22:32.527Z,11.93
2019-04-22T23:25:19.156Z,13.33
2019-04-22T23:27:52.559Z,9.70
2019-04-22T23:30:36.230Z,10.33
2019-04-22T23:33:20.298Z,11.67
2019-04-22T23:35:49.414Z,10.97
2019-04-22T23:38:21.005Z,11.90
2019-04-22T23:40:54.199Z,10.57
2019-04-22T23:46:02.472Z,11.20
2019-04-22T23:48:27.229Z,11.27
2019-04-22T23:51:04.471Z,10.07
2019-04-22T23:53:57.584Z,11.60
2019-04-22T23:56:06.221Z,11.57
